createdAt,value
2022-11-19T00:02:20.479Z,14.48
2022-11-19T00:07:24.126Z,14.49
2022-11-19T00:12:45.800Z,14.64
2022-11-19T00:17:49.722Z,14.49
2022-11-19T00:22:57.540Z,14.36
2022-11-19T00:28:01.989Z,14.52
2022-11-19T00:33:06.038Z,14.42
2022-11-19T00:38:10.029Z,14.35
2022-11-19T00:43:32.142Z,14.24
2022-11-19T00:48:35.245Z,14.16
2022-11-19T00:53:39.188Z,14.29
2022-11-19T00:58:43.012Z,14.11
2022-11-19T01:03:46.326Z,14.23
2022-11-19T01:08:51.388Z,14.03
2022-11-19T01:13:55.670Z,14.26
2022-11-19T01:18:59.253Z,14.26
2022-11-19T01:24:04.102Z,14.24
2022-11-19T01:29:08.014Z,14.49
2022-11-19T01:34:11.613Z,14.23
2022-11-19T01:39:15.262Z,13.82
2022-11-19T01:44:59.453Z,13.99
2022-11-19T01:50:03.302Z,13.93
2022-11-19T01:55:08.033Z,13.98
2022-11-19T02:00:12.685Z,13.72
2022-11-19T02:05:16.559Z,13.79
2022-11-19T02:10:20.083Z,13.77
2022-11-19T02:15:38.842Z,13.71
2022-11-19T02:21:08.913Z,13.78
2022-11-19T02:26:30.765Z,13.73
2022-11-19T02:31:55.156Z,13.62
2022-11-19T02:37:01.003Z,13.69
2022-11-19T02:42:22.374Z,13.77
2022-11-19T02:47:48.634Z,13.92
2022-11-19T02:52:52.845Z,13.85
2022-11-19T03:04:30.753Z,14.18
2022-11-19T03:09:38.106Z,14.21
2022-11-19T03:15:13.124Z,14.22
2022-11-19T03:20:31.917Z,14.14
2022-11-19T03:25:56.050Z,13.99
2022-11-19T03:31:01.334Z,14.12
2022-11-19T03:36:32.377Z,14.02
2022-11-19T03:41:38.432Z,14.03
2022-11-19T03:46:44.587Z,13.81
2022-11-19T03:51:53.523Z,13.87
2022-11-19T03:56:59.142Z,13.85
2022-11-19T04:02:07.175Z,13.83
2022-11-19T04:07:14.852Z,14.01
2022-11-19T04:12:20.818Z,14.05
2022-11-19T04:17:23.913Z,14.07
2022-11-19T04:22:27.502Z,13.99
2022-11-19T04:27:30.923Z,14.02
2022-11-19T04:32:34.946Z,14.05
2022-11-19T04:37:38.202Z,14.02
2022-11-19T04:42:42.235Z,13.96
2022-11-19T04:47:45.227Z,13.92
2022-11-19T04:52:48.665Z,13.87
2022-11-19T04:57:53.221Z,13.91
2022-11-19T05:02:57.093Z,13.71
2022-11-19T05:08:00.084Z,13.92
2022-11-19T05:13:03.807Z,14.03
2022-11-19T05:18:07.846Z,14.26
2022-11-19T05:23:11.579Z,14.54
2022-11-19T05:28:15.004Z,14.38
2022-11-19T05:33:18.040Z,14.14
2022-11-19T05:38:21.459Z,14.10
2022-11-19T05:43:25.290Z,14.09
2022-11-19T05:48:29.124Z,13.81
2022-11-19T05:53:33.098Z,13.58
2022-11-19T05:58:36.561Z,13.63
2022-11-19T06:03:41.134Z,13.82
2022-11-19T06:08:44.563Z,14.25
2022-11-19T06:13:48.142Z,14.50
2022-11-19T06:18:51.110Z,14.87
2022-11-19T06:23:57.205Z,15.02
2022-11-19T06:29:01.180Z,15.05
2022-11-19T06:34:04.692Z,14.97
2022-11-19T06:39:08.298Z,15.26
2022-11-19T06:44:11.323Z,15.25
2022-11-19T06:49:19.937Z,15.34
2022-11-19T06:54:23.346Z,15.45
2022-11-19T06:59:26.343Z,15.31
2022-11-19T07:04:29.564Z,15.56
2022-11-19T07:09:32.926Z,15.47
2022-11-19T07:14:36.432Z,15.70
2022-11-19T07:19:40.596Z,15.73
2022-11-19T07:24:43.663Z,16.50
2022-11-19T07:29:47.678Z,17.03
2022-11-19T07:34:50.655Z,17.07
2022-11-19T07:39:54.198Z,16.91
2022-11-19T07:44:57.654Z,16.71
2022-11-19T07:50:01.049Z,16.61
2022-11-19T07:55:04.437Z,16.51
2022-11-19T08:00:08.686Z,16.41
2022-11-19T08:05:18.547Z,16.42
2022-11-19T08:10:22.350Z,16.42
2022-11-19T08:15:26.043Z,16.37
2022-11-19T08:20:29.689Z,16.39
2022-11-19T08:25:33.475Z,16.49
2022-11-19T08:30:36.560Z,16.51
2022-11-19T08:35:41.627Z,16.35
2022-11-19T08:40:51.891Z,16.46
2022-11-19T08:45:54.979Z,16.88
2022-11-19T08:50:58.855Z,17.11
2022-11-19T08:56:01.895Z,16.98
2022-11-19T09:01:12.752Z,17.20
2022-11-19T09:06:17.094Z,17.42
2022-11-19T09:11:21.423Z,17.92
2022-11-19T09:16:25.171Z,18.93
2022-11-19T09:21:34.156Z,20.86
2022-11-19T09:26:37.739Z,20.60
2022-11-19T09:31:40.736Z,21.46
2022-11-19T09:36:44.255Z,20.46
2022-11-19T09:42:25.746Z,19.67
2022-11-19T09:48:02.279Z,19.55
2022-11-19T09:53:21.923Z,20.82
2022-11-19T09:58:27.914Z,20.65
2022-11-19T10:03:33.928Z,20.66
2022-11-19T10:09:14.991Z,21.50
2022-11-19T10:14:40.799Z,22.02
2022-11-19T10:20:14.154Z,22.36
2022-11-19T10:25:39.080Z,22.89
2022-11-19T10:30:50.183Z,21.45
2022-11-19T10:36:03.201Z,20.63
2022-11-19T10:41:15.627Z,21.40
2022-11-19T10:46:23.157Z,21.84
2022-11-19T10:51:34.292Z,21.25
2022-11-19T10:56:42.568Z,21.38
2022-11-19T11:01:49.700Z,21.15
2022-11-19T11:07:01.088Z,21.42
2022-11-19T11:12:35.790Z,21.76
2022-11-19T11:17:39.967Z,20.70
2022-11-19T11:22:46.809Z,20.53
2022-11-19T11:28:12.735Z,21.14
2022-11-19T11:33:38.836Z,21.45
2022-11-19T11:38:54.944Z,21.58
2022-11-19T11:44:20.808Z,21.76
2022-11-19T11:49:27.685Z,22.01
2022-11-19T11:54:31.088Z,21.74
2022-11-19T11:59:36.305Z,22.05
2022-11-19T12:04:40.274Z,21.01
2022-11-19T12:10:05.923Z,21.17
2022-11-19T12:15:47.468Z,20.84
2022-11-19T12:21:00.675Z,20.09
2022-11-19T12:26:23.100Z,19.65
2022-11-19T12:31:53.295Z,19.69
2022-11-19T12:37:16.313Z,19.68
2022-11-19T12:42:53.142Z,19.61
2022-11-19T12:48:23.609Z,19.92
2022-11-19T12:53:52.065Z,20.18
2022-11-19T12:59:17.562Z,20.13
2022-11-19T13:04:32.385Z,20.28
2022-11-19T13:09:59.907Z,20.27
2022-11-19T13:15:15.607Z,21.34
2022-11-19T13:20:40.183Z,20.07
2022-11-19T13:25:51.517Z,19.06
2022-11-19T13:31:01.794Z,18.69
2022-11-19T13:36:30.235Z,18.66
2022-11-19T13:42:05.848Z,18.52
2022-11-19T13:47:29.280Z,18.45
2022-11-19T13:52:38.526Z,18.42
2022-11-19T13:57:45.632Z,18.41
2022-11-19T14:03:19.599Z,18.10
2022-11-19T14:08:47.480Z,17.91
2022-11-19T14:13:56.752Z,17.88
2022-11-19T14:19:21.496Z,17.56
2022-11-19T14:24:43.941Z,17.25
2022-11-19T14:29:47.447Z,17.08
2022-11-19T14:35:03.078Z,16.98
2022-11-19T14:40:17.723Z,16.89
2022-11-19T14:45:22.270Z,16.68
2022-11-19T14:50:28.880Z,16.68
2022-11-19T14:55:35.443Z,16.54
2022-11-19T15:00:41.281Z,16.42
2022-11-19T15:05:47.196Z,16.28
2022-11-19T15:11:12.314Z,16.21
2022-11-19T15:16:25.785Z,16.06
2022-11-19T15:21:51.667Z,16.12
2022-11-19T15:27:10.488Z,16.08
2022-11-19T15:32:28.957Z,16.03
2022-11-19T15:37:55.003Z,15.95
2022-11-19T15:43:04.383Z,16.04
2022-11-19T15:48:13.315Z,15.74
2022-11-19T15:53:19.282Z,15.73
2022-11-19T15:58:46.384Z,15.58
2022-11-19T16:03:53.062Z,15.20
2022-11-19T16:09:05.265Z,15.08
2022-11-19T16:14:48.807Z,14.92
2022-11-19T16:20:22.700Z,15.02
2022-11-19T16:25:43.543Z,15.28
2022-11-19T16:30:50.500Z,15.44
2022-11-19T16:36:12.024Z,15.60
2022-11-19T16:41:41.480Z,15.62
2022-11-19T16:46:46.605Z,15.64
2022-11-19T16:51:50.122Z,15.46
2022-11-19T16:56:53.861Z,15.28
2022-11-19T17:02:00.248Z,15.27
2022-11-19T17:07:14.794Z,15.58
2022-11-19T17:12:27.773Z,15.40
2022-11-19T17:17:41.068Z,15.38
2022-11-19T17:22:45.146Z,15.20
2022-11-19T17:27:55.355Z,15.32
2022-11-19T17:33:06.003Z,15.29
2022-11-19T17:38:13.711Z,15.23
2022-11-19T17:43:41.322Z,15.29
2022-11-19T17:48:46.276Z,15.43
2022-11-19T17:53:54.809Z,15.18
2022-11-19T17:58:59.849Z,15.15
2022-11-19T18:04:02.948Z,15.15
2022-11-19T18:09:06.503Z,15.35
2022-11-19T18:14:13.028Z,15.49
2022-11-19T18:19:28.759Z,15.47
2022-11-19T18:24:32.442Z,15.45
2022-11-19T18:29:35.631Z,15.69
2022-11-19T18:34:38.711Z,15.65
2022-11-19T18:39:41.744Z,15.71
2022-11-19T18:44:45.247Z,15.67
2022-11-19T18:49:48.432Z,15.43
2022-11-19T18:54:51.714Z,15.31
2022-11-19T18:59:54.952Z,15.46
2022-11-19T19:04:58.010Z,15.21
2022-11-19T19:10:01.952Z,15.25
2022-11-19T19:15:06.967Z,15.18
2022-11-19T19:20:10.543Z,15.09
2022-11-19T19:25:14.632Z,15.21
2022-11-19T19:30:18.977Z,15.28
2022-11-19T19:35:22.774Z,15.07
2022-11-19T19:40:25.781Z,15.14
2022-11-19T19:45:29.734Z,15.11
2022-11-19T19:50:33.244Z,15.02
2022-11-19T19:55:36.251Z,15.05
2022-11-19T20:00:39.745Z,15.07
2022-11-19T20:05:49.371Z,15.18
2022-11-19T20:10:52.838Z,15.34
2022-11-19T20:15:58.779Z,15.34
2022-11-19T20:21:01.940Z,15.26
2022-11-19T20:26:23.537Z,15.28
2022-11-19T20:31:27.239Z,15.13
2022-11-19T20:36:33.583Z,15.01
2022-11-19T20:41:55.126Z,15.05
2022-11-19T20:47:03.379Z,14.95
2022-11-19T20:52:08.493Z,15.07
2022-11-19T20:57:11.728Z,14.93
2022-11-19T21:02:14.897Z,14.80
2022-11-19T21:07:17.967Z,14.73
2022-11-19T21:12:21.514Z,14.80
2022-11-19T21:17:25.138Z,14.73
2022-11-19T21:22:28.131Z,14.95
2022-11-19T21:27:32.053Z,14.80
2022-11-19T21:32:35.113Z,15.02
2022-11-19T21:37:38.711Z,14.87
2022-11-19T21:42:42.161Z,15.10
2022-11-19T21:47:45.247Z,14.96
2022-11-19T21:52:48.394Z,15.00
2022-11-19T21:57:52.483Z,14.94
2022-11-19T22:02:55.896Z,14.98
2022-11-19T22:08:00.316Z,14.83
2022-11-19T22:13:04.388Z,14.87
2022-11-19T22:18:07.540Z,14.80
2022-11-19T22:23:10.642Z,14.89
2022-11-19T22:28:14.063Z,14.84
2022-11-19T22:33:17.171Z,14.87
2022-11-19T22:38:20.988Z,14.73
2022-11-19T22:43:23.945Z,15.02
2022-11-19T22:48:32.140Z,15.21
2022-11-19T22:53:36.752Z,15.20
2022-11-19T22:58:40.137Z,15.02
2022-11-19T23:03:43.519Z,14.98
2022-11-19T23:08:47.143Z,15.00
2022-11-19T23:13:50.293Z,14.62
2022-11-19T23:18:53.976Z,14.81
2022-11-19T23:24:00.166Z,14.64
2022-11-19T23:29:04.640Z,14.69
2022-11-19T23:34:08.456Z,14.53
2022-11-19T23:39:15.855Z,14.46
2022-11-19T23:44:19.485Z,14.60
2022-11-19T23:49:23.259Z,14.46
2022-11-19T23:54:26.643Z,14.53
2022-11-19T23:59:30.001Z,14.54
